| time (UTC) | temp F | wind direction | speed MPH | gust MPH | rain 1hr in | rain 24hr in | rain mn in | humidity % | barometer mb |
| 20260904171016 | 92 | 180 | 7.0 | 13.0 | 0.00 | 0.00 | 0.00 | 57 | 1013.5 |
| 20260904170036 | 92 | 180 | 6.0 | 16.0 | 0.00 | 0.00 | 0.00 | 58 | 1013.7 |
| 20260904165016 | 90 | 180 | 7.0 | 14.0 | 0.00 | 0.00 | 0.00 | 59 | 1013.7 |
| 20260904164016 | 89 | 158 | 6.0 | 12.0 | 0.00 | 0.00 | 0.00 | 63 | 1013.6 |
| 20260904163016 | 89 | 180 | 6.0 | 9.0 | 0.00 | 0.00 | 0.00 | 64 | 1013.8 |
| 20260904162016 | 87 | 135 | 7.0 | 11.0 | 0.00 | 0.00 | 0.00 | 67 | 1013.8 |
| 20260904161036 | 86 | 180 | 6.0 | 12.0 | 0.00 | 0.00 | 0.00 | 68 | 1013.9 |
| 20260904160016 | 86 | 180 | 7.0 | 11.0 | 0.00 | 0.00 | 0.00 | 69 | 1014.0 |
| 20260904155016 | 87 | 158 | 6.0 | 12.0 | 0.00 | 0.00 | 0.00 | 69 | 1013.9 |
| 20260904154016 | 88 | 180 | 5.0 | 11.0 | 0.00 | 0.00 | 0.00 | 66 | 1013.9 |
| 20260904153016 | 86 | 180 | 7.0 | 12.0 | 0.00 | 0.00 | 0.00 | 68 | 1013.8 |
| 20260904152016 | 85 | 180 | 4.0 | 8.0 | 0.00 | 0.00 | 0.00 | 73 | 1013.7 |
| 20260904151016 | 83 | 180 | 4.0 | 9.0 | 0.00 | 0.00 | 0.00 | 77 | 1013.7 |
| 20260904150016 | 82 | 203 | 6.0 | 13.0 | 0.00 | 0.00 | 0.00 | 79 | 1013.7 |
| 20260904145016 | 82 | 203 | 4.0 | 9.0 | 0.00 | 0.00 | 0.00 | 80 | 1013.7 |
| 20260904144016 | 81 | 180 | 4.0 | 8.0 | 0.00 | 0.00 | 0.00 | 82 | 1013.7 |
| 20260904143015 | 81 | 158 | 4.0 | 8.0 | 0.00 | 0.00 | 0.00 | 83 | 1013.7 |
| 20260904142015 | 80 | 180 | 5.0 | 8.0 | 0.00 | 0.00 | 0.00 | 83 | 1013.8 |
| 20260904141015 | 80 | 135 | 6.0 | 10.0 | 0.00 | 0.00 | 0.00 | 84 | 1013.7 |
| 20260904140015 | 79 | 135 | 4.0 | 9.0 | 0.00 | 0.00 | 0.00 | 85 | 1013.7 |
| 20260904135015 | 79 | 135 | 4.0 | 10.0 | 0.00 | 0.00 | 0.00 | 86 | 1013.4 |
| 20260904134015 | 78 | 158 | 3.0 | 5.0 | 0.00 | 0.00 | 0.00 | 86 | 1013.2 |
| 20260904133015 | 78 | 158 | 3.0 | 6.0 | 0.00 | 0.00 | 0.00 | 86 | 1013.2 |
| 20260904132016 | 78 | 135 | 5.0 | 9.0 | 0.00 | 0.00 | 0.00 | 87 | 1013.0 |
| 20260904131017 | 78 | 158 | 4.0 | 8.0 | 0.00 | 0.00 | 0.00 | 87 | 1013.0 |
| 20260904130017 | 78 | 158 | 4.0 | 7.0 | 0.00 | 0.00 | 0.00 | 87 | 1013.0 |
| 20260904125017 | 77 | 158 | 3.0 | 8.0 | 0.00 | 0.00 | 0.00 | 87 | 1012.9 |
| 20260904124017 | 77 | 135 | 3.0 | 6.0 | 0.00 | 0.00 | 0.00 | 87 | 1012.9 |
| 20260904123517 | 77 | 135 | 2.0 | 4.0 | 0.00 | 0.00 | 0.00 | 87 | 1012.8 |
| 20260904122517 | 77 | 158 | 2.0 | 5.0 | 0.00 | 0.00 | 0.00 | 87 | 1012.5 |
| 20260904121517 | 77 | 135 | 3.0 | 5.0 | 0.00 | 0.00 | 0.00 | 87 | 1012.4 |
| 20260904120517 | 77 | 135 | 4.0 | 7.0 | 0.00 | 0.00 | 0.00 | 86 | 1012.2 |
| 20260904115517 | 77 | 158 | 3.0 | 5.0 | 0.00 | 0.00 | 0.00 | 86 | 1012.3 |
| 20260904114517 | 78 | 135 | 3.0 | 6.0 | 0.00 | 0.00 | 0.00 | 86 | 1012.1 |
| 20260904113517 | 78 | 135 | 4.0 | 7.0 | 0.00 | 0.00 | 0.00 | 85 | 1012.3 |
| 20260904112557 | 78 | 135 | 3.0 | 7.0 | 0.00 | 0.00 | 0.00 | 85 | 1012.3 |
| 20260904111537 | 78 | 135 | 3.0 | 5.0 | 0.00 | 0.00 | 0.00 | 85 | 1012.4 |
| 20260904110517 | 78 | 135 | 3.0 | 6.0 | 0.00 | 0.00 | 0.00 | 85 | 1012.6 |
| 20260904105517 | 78 | 135 | 4.0 | 7.0 | 0.00 | 0.00 | 0.00 | 84 | 1012.5 |
| 20260904104517 | 78 | 158 | 2.0 | 3.0 | 0.00 | 0.00 | 0.00 | 84 | 1012.4 |
| 20260904103517 | 78 | 158 | 3.0 | 7.0 | 0.00 | 0.00 | 0.00 | 84 | 1012.4 |
| 20260904102516 | 78 | 158 | 3.0 | 5.0 | 0.00 | 0.00 | 0.00 | 84 | 1012.4 |
| 20260904101517 | 78 | 180 | 3.0 | 6.0 | 0.00 | 0.00 | 0.00 | 84 | 1012.3 |
| 20260904100517 | 78 | 135 | 4.0 | 7.0 | 0.00 | 0.00 | 0.00 | 84 | 1012.4 |
| 20260904095537 | 78 | 135 | 3.0 | 5.0 | 0.00 | 0.00 | 0.00 | 83 | 1012.3 |
| 20260904094516 | 78 | 158 | 2.0 | 4.0 | 0.00 | 0.00 | 0.00 | 83 | 1012.2 |
| 20260904093537 | 78 | 158 | 3.0 | 6.0 | 0.00 | 0.00 | 0.00 | 83 | 1012.3 |
| 20260904092517 | 78 | 135 | 3.0 | 5.0 | 0.00 | 0.00 | 0.00 | 83 | 1012.3 |
| 20260904091516 | 78 | 158 | 2.0 | 5.0 | 0.00 | 0.00 | 0.00 | 82 | 1012.3 |
| 20260904090516 | 78 | 135 | 4.0 | 8.0 | 0.00 | 0.00 | 0.00 | 82 | 1012.2 |
| 20260904085516 | 79 | 135 | 4.0 | 7.0 | 0.00 | 0.00 | 0.00 | 82 | 1012.2 |
| 20260904084516 | 79 | 158 | 4.0 | 8.0 | 0.00 | 0.00 | 0.00 | 81 | 1012.2 |
| 20260904083536 | 79 | 158 | 3.0 | 7.0 | 0.00 | 0.00 | 0.00 | 81 | 1012.2 |
| 20260904082516 | 79 | 180 | 4.0 | 7.0 | 0.00 | 0.00 | 0.00 | 80 | 1012.1 |
| 20260904081516 | 79 | 180 | 4.0 | 6.0 | 0.00 | 0.00 | 0.00 | 80 | 1012.1 |
| 20260904080516 | 79 | 158 | 4.0 | 7.0 | 0.00 | 0.00 | 0.00 | 80 | 1012.0 |
| 20260904075516 | 79 | 158 | 4.0 | 6.0 | 0.00 | 0.00 | 0.00 | 79 | 1012.1 |
| 20260904074536 | 79 | 158 | 4.0 | 7.0 | 0.00 | 0.00 | 0.00 | 79 | 1012.1 |
| 20260904073516 | 79 | 158 | 4.0 | 7.0 | 0.00 | 0.00 | 0.00 | 78 | 1012.3 |
| 20260904072516 | 79 | 158 | 4.0 | 7.0 | 0.00 | 0.00 | 0.00 | 78 | 1012.3 |
| 20260904071516 | 80 | 158 | 4.0 | 10.0 | 0.00 | 0.00 | 0.00 | 77 | 1012.5 |
| 20260904070516 | 80 | 158 | 5.0 | 10.0 | 0.00 | 0.00 | 0.00 | 76 | 1012.5 |
| 20260904065516 | 80 | 158 | 2.0 | 4.0 | 0.00 | 0.00 | 0.00 | 76 | 1012.6 |
| 20260904064516 | 80 | 158 | 5.0 | 8.0 | 0.00 | 0.00 | 0.00 | 75 | 1012.6 |
| 20260904063516 | 80 | 158 | 5.0 | 7.0 | 0.00 | 0.00 | 0.00 | 75 | 1012.4 |
| 20260904062516 | 80 | 158 | 5.0 | 9.0 | 0.00 | 0.00 | 0.00 | 75 | 1012.3 |
| 20260904061516 | 80 | 158 | 4.0 | 7.0 | 0.00 | 0.00 | 0.00 | 76 | 1012.3 |
| 20260904060515 | 80 | 158 | 2.0 | 4.0 | 0.00 | 0.00 | 0.00 | 76 | 1012.3 |
| 20260904055516 | 80 | 158 | 3.0 | 6.0 | 0.00 | 0.00 | 0.00 | 76 | 1012.4 |
| 20260904054516 | 80 | 135 | 3.0 | 8.0 | 0.00 | 0.00 | 0.00 | 77 | 1012.5 |
| 20260904053515 | 80 | 135 | 3.0 | 4.0 | 0.00 | 0.00 | 0.00 | 76 | 1012.4 |
| 20260904052515 | 80 | 135 | 4.0 | 7.0 | 0.00 | 0.00 | 0.00 | 76 | 1012.3 |
| 20260904051516 | 80 | 135 | 2.0 | 5.0 | 0.00 | 0.00 | 0.00 | 76 | 1012.3 |
| 20260904050556 | 81 | 135 | 4.0 | 8.0 | 0.00 | 0.00 | 0.00 | 75 | 1012.1 |
| 20260904045516 | 81 | 135 | 5.0 | 9.0 | 0.00 | 0.00 | 0.00 | 75 | 1012.2 |
| 20260904044516 | 81 | 135 | 4.0 | 7.0 | 0.00 | 0.00 | 0.00 | 75 | 1012.2 |
| 20260904043516 | 81 | 135 | 4.0 | 8.0 | 0.00 | 0.00 | 0.00 | 75 | 1012.0 |
| 20260904042516 | 81 | 135 | 6.0 | 11.0 | 0.00 | 0.00 | 0.00 | 75 | 1012.0 |
| 20260904041516 | 81 | 135 | 6.0 | 10.0 | 0.00 | 0.00 | 0.00 | 75 | 1012.0 |
| 20260904040516 | 81 | 135 | 6.0 | 10.0 | 0.00 | 0.00 | 0.00 | 76 | 1012.0 |
| 20260904035516 | 82 | 135 | 7.0 | 10.0 | 0.00 | 0.00 | 0.00 | 77 | 1012.0 |
| 20260904034516 | 82 | 135 | 7.0 | 11.0 | 0.00 | 0.00 | 0.00 | 77 | 1011.9 |
| 20260904033516 | 82 | 135 | 5.0 | 10.0 | 0.00 | 0.00 | 0.00 | 76 | 1012.2 |
| 20260904032536 | 82 | 135 | 8.0 | 11.0 | 0.00 | 0.00 | 0.00 | 75 | 1012.0 |
| 20260904031516 | 82 | 135 | 7.0 | 10.0 | 0.00 | 0.00 | 0.00 | 72 | 1012.0 |
| 20260904030516 | 82 | 135 | 6.0 | 9.0 | 0.00 | 0.00 | 0.00 | 72 | 1011.9 |
| 20260904025536 | 83 | 135 | 5.0 | 9.0 | 0.00 | 0.00 | 0.00 | 73 | 1011.7 |
| 20260904024536 | 83 | 135 | 6.0 | 10.0 | 0.00 | 0.00 | 0.00 | 72 | 1011.7 |
| 20260904023516 | 83 | 135 | 8.0 | 13.0 | 0.00 | 0.00 | 0.00 | 73 | 1011.4 |
| 20260904022516 | 83 | 135 | 7.0 | 11.0 | 0.00 | 0.00 | 0.00 | 75 | 1011.2 |
| 20260904021516 | 82 | 135 | 5.0 | 9.0 | 0.00 | 0.00 | 0.00 | 77 | 1011.0 |
| 20260904020536 | 82 | 113 | 3.0 | 5.0 | 0.00 | 0.00 | 0.00 | 77 | 1010.7 |
| 20260904015515 | 82 | 135 | 3.0 | 5.0 | 0.00 | 0.00 | 0.00 | 77 | 1010.5 |
| 20260904014535 | 83 | 113 | 3.0 | 6.0 | 0.00 | 0.00 | 0.00 | 76 | 1010.4 |
| 20260904013516 | 83 | 135 | 4.0 | 9.0 | 0.00 | 0.00 | 0.00 | 76 | 1010.2 |
| 20260904012515 | 83 | 135 | 5.0 | 10.0 | 0.00 | 0.00 | 0.00 | 76 | 1010.1 |
| 20260904011535 | 84 | 135 | 5.0 | 9.0 | 0.00 | 0.00 | 0.00 | 76 | 1010.0 |
| 20260904010535 | 84 | 135 | 7.0 | 9.0 | 0.00 | 0.00 | 0.00 | 77 | 1009.8 |
| 20260904005515 | 84 | 113 | 7.0 | 11.0 | 0.00 | 0.00 | 0.00 | 77 | 1009.8 |
| 20260904004515 | 85 | 113 | 7.0 | 9.0 | 0.00 | 0.00 | 0.00 | 76 | 1009.8 |
| 20260904003515 | 85 | 113 | 5.0 | 9.0 | 0.00 | 0.00 | 0.00 | 77 | 1009.7 |
| 20260904002515 | 85 | 113 | 5.0 | 9.0 | 0.00 | 0.00 | 0.00 | 78 | 1009.6 |
| 20260904001515 | 85 | 113 | 6.0 | 10.0 | 0.00 | 0.00 | 0.00 | 77 | 1009.5 |
| 20260904000515 | 84 | 135 | 7.0 | 13.0 | 0.00 | 0.00 | 0.00 | 78 | 1009.5 |
| 20260903235515 | 83 | 113 | 8.0 | 12.0 | 0.00 | 0.00 | 0.00 | 79 | 1009.4 |
| 20260903234517 | 82 | 135 | 5.0 | 9.0 | 0.00 | 0.00 | 0.00 | 78 | 1009.5 |
| 20260903233517 | 82 | 135 | 7.0 | 13.0 | 0.00 | 0.00 | 0.00 | 78 | 1009.5 |
| 20260903232517 | 82 | 113 | 9.0 | 14.0 | 0.00 | 0.00 | 0.00 | 77 | 1009.5 |
| 20260903231517 | 83 | 90 | 10.0 | 16.0 | 0.00 | 0.00 | 0.00 | 75 | 1009.2 |
| 20260903230517 | 87 | 113 | 9.0 | 15.0 | 0.00 | 0.00 | 0.00 | 74 | 1009.2 |
| 20260903225517 | 91 | 113 | 13.0 | 19.0 | 0.00 | 0.00 | 0.00 | 63 | 1009.0 |
| 20260903224517 | 93 | 113 | 12.0 | 19.0 | 0.00 | 0.00 | 0.00 | 60 | 1009.4 |
| 20260903223537 | 94 | 113 | 9.0 | 13.0 | 0.00 | 0.00 | 0.00 | 58 | 1009.3 |
| 20260903222517 | 94 | 180 | 7.0 | 13.0 | 0.00 | 0.00 | 0.00 | 58 | 1009.2 |
| 20260903221517 | 94 | 135 | 10.0 | 15.0 | 0.00 | 0.00 | 0.00 | 58 | 1008.9 |
| 20260903220517 | 95 | 135 | 9.0 | 14.0 | 0.00 | 0.00 | 0.00 | 57 | 1009.2 |
| 20260903215517 | 95 | 158 | 8.0 | 15.0 | 0.00 | 0.00 | 0.00 | 57 | 1009.0 |
| 20260903214517 | 95 | 113 | 8.0 | 14.0 | 0.00 | 0.00 | 0.00 | 57 | 1009.0 |
| 20260903213517 | 95 | 158 | 6.0 | 12.0 | 0.00 | 0.00 | 0.00 | 57 | 1009.2 |
| 20260903212517 | 95 | 180 | 8.0 | 13.0 | 0.00 | 0.00 | 0.00 | 55 | 1009.2 |
| 20260903211516 | 96 | 135 | 8.0 | 14.0 | 0.00 | 0.00 | 0.00 | 55 | 1009.3 |
| 20260903210516 | 96 | 135 | 8.0 | 17.0 | 0.00 | 0.00 | 0.00 | 55 | 1009.4 |
| 20260903205536 | 97 | 158 | 6.0 | 10.0 | 0.00 | 0.00 | 0.00 | 54 | 1009.6 |
| 20260903204517 | 97 | 135 | 6.0 | 15.0 | 0.00 | 0.00 | 0.00 | 54 | 1009.7 |
| 20260903203516 | 95 | 158 | 7.0 | 11.0 | 0.00 | 0.00 | 0.00 | 56 | 1009.9 |
| 20260903202516 | 95 | 135 | 6.0 | 12.0 | 0.00 | 0.00 | 0.00 | 56 | 1010.0 |
| 20260903201516 | 95 | 135 | 9.0 | 14.0 | 0.00 | 0.00 | 0.00 | 56 | 1010.1 |
| 20260903200517 | 95 | 135 | 7.0 | 12.0 | 0.00 | 0.00 | 0.00 | 56 | 1010.2 |
| 20260903195516 | 95 | 158 | 8.0 | 16.0 | 0.00 | 0.00 | 0.00 | 56 | 1010.3 |
| 20260903194516 | 94 | 113 | 7.0 | 12.0 | 0.00 | 0.00 | 0.00 | 58 | 1010.4 |
| 20260903193516 | 95 | 135 | 7.0 | 14.0 | 0.00 | 0.00 | 0.00 | 57 | 1010.5 |
| 20260903192536 | 94 | 158 | 7.0 | 13.0 | 0.00 | 0.00 | 0.00 | 59 | 1010.7 |
| 20260903191516 | 94 | 158 | 7.0 | 15.0 | 0.00 | 0.00 | 0.00 | 59 | 1011.0 |
| 20260903190516 | 94 | 135 | 7.0 | 16.0 | 0.00 | 0.00 | 0.00 | 59 | 1011.1 |
| 20260903185516 | 94 | 135 | 7.0 | 12.0 | 0.00 | 0.00 | 0.00 | 58 | 1011.2 |
| 20260903184516 | 94 | 135 | 7.0 | 12.0 | 0.00 | 0.00 | 0.00 | 60 | 1011.4 |
| 20260903183516 | 94 | 135 | 8.0 | 14.0 | 0.00 | 0.00 | 0.00 | 59 | 1011.5 |
| 20260903182516 | 94 | 135 | 8.0 | 12.0 | 0.00 | 0.00 | 0.00 | 59 | 1011.7 |
| 20260903181516 | 92 | 135 | 9.0 | 13.0 | 0.00 | 0.00 | 0.00 | 61 | 1011.8 |
| 20260903180516 | 92 | 135 | 9.0 | 13.0 | 0.00 | 0.00 | 0.00 | 61 | 1011.8 |
| 20260903175536 | 91 | 113 | 8.0 | 13.0 | 0.00 | 0.00 | 0.00 | 63 | 1011.9 |
| 20260903174516 | 91 | 158 | 6.0 | 13.0 | 0.00 | 0.00 | 0.00 | 64 | 1012.1 |
| 20260903173516 | 89 | 113 | 7.0 | 11.0 | 0.00 | 0.00 | 0.00 | 65 | 1012.1 |
| 20260903172516 | 88 | 113 | 8.0 | 13.0 | 0.00 | 0.00 | 0.00 | 66 | 1012.3 |